createdAt,value
2022-09-24T00:03:32.288Z,9.57
2022-09-24T00:08:36.263Z,9.56
2022-09-24T00:13:39.575Z,9.51
2022-09-24T00:18:42.730Z,9.53
2022-09-24T00:23:45.542Z,9.59
2022-09-24T00:28:51.210Z,9.62
2022-09-24T00:33:54.403Z,9.67
2022-09-24T00:38:59.132Z,9.78
2022-09-24T00:44:01.679Z,10.27
2022-09-24T00:49:14.435Z,10.01
2022-09-24T00:54:20.885Z,9.84
2022-09-24T00:59:24.156Z,9.82
2022-09-24T01:04:28.727Z,9.64
2022-09-24T01:09:31.179Z,9.45
2022-09-24T01:14:55.251Z,9.39
2022-09-24T01:20:21.525Z,9.32
2022-09-24T01:25:55.074Z,9.32
2022-09-24T01:31:06.285Z,9.12
2022-09-24T01:36:09.552Z,8.92
2022-09-24T01:41:12.950Z,9.05
2022-09-24T01:46:17.064Z,8.91
2022-09-24T01:51:23.486Z,8.85
2022-09-24T01:56:30.711Z,8.80
2022-09-24T02:01:41.398Z,8.84
2022-09-24T02:06:48.840Z,8.60
2022-09-24T02:11:52.194Z,8.35
2022-09-24T02:16:54.719Z,8.30
2022-09-24T02:21:57.886Z,8.25
2022-09-24T02:27:00.309Z,8.31
2022-09-24T02:32:03.917Z,8.25
2022-09-24T02:37:09.030Z,8.26
2022-09-24T02:42:14.269Z,8.07
2022-09-24T02:47:16.633Z,8.02
2022-09-24T02:52:19.149Z,8.01
2022-09-24T02:57:21.473Z,8.10
2022-09-24T03:02:23.925Z,8.17
2022-09-24T03:07:26.348Z,8.22
2022-09-24T03:12:28.689Z,8.18
2022-09-24T03:17:31.062Z,8.29
2022-09-24T03:22:33.467Z,8.35
2022-09-24T03:27:35.926Z,8.31
2022-09-24T03:32:39.548Z,8.33
2022-09-24T03:37:47.039Z,8.25
2022-09-24T03:42:51.524Z,8.35
2022-09-24T03:47:53.866Z,8.24
2022-09-24T03:52:56.238Z,8.24
2022-09-24T03:57:58.682Z,8.15
2022-09-24T04:03:01.115Z,8.19
2022-09-24T04:08:05.271Z,8.17
2022-09-24T04:13:07.576Z,8.18
2022-09-24T04:18:10.913Z,8.15
2022-09-24T04:23:13.310Z,8.07
2022-09-24T04:28:15.962Z,8.07
2022-09-24T04:33:18.301Z,8.13
2022-09-24T04:38:21.718Z,8.08
2022-09-24T04:43:24.040Z,8.11
2022-09-24T04:48:26.734Z,8.17
2022-09-24T04:53:29.120Z,8.19
2022-09-24T04:58:32.100Z,8.21
2022-09-24T05:03:34.455Z,8.47
2022-09-24T05:08:36.819Z,8.49
2022-09-24T05:13:39.162Z,8.88
2022-09-24T05:18:41.708Z,9.07
2022-09-24T05:23:44.100Z,9.18
2022-09-24T05:28:46.546Z,9.50
2022-09-24T05:33:49.474Z,9.85
2022-09-24T05:38:52.010Z,9.98
2022-09-24T05:43:55.391Z,10.15
2022-09-24T05:48:58.060Z,10.21
2022-09-24T05:54:00.430Z,10.49
2022-09-24T05:59:02.924Z,10.83
2022-09-24T06:04:08.892Z,11.08
2022-09-24T06:09:11.661Z,11.18
2022-09-24T06:14:15.169Z,11.13
2022-09-24T06:19:17.572Z,11.15
2022-09-24T06:24:19.942Z,11.10
2022-09-24T06:29:22.320Z,11.18
2022-09-24T06:34:24.707Z,11.56
2022-09-24T06:39:27.829Z,11.53
2022-09-24T06:44:31.037Z,11.58
2022-09-24T06:49:34.412Z,11.89
2022-09-24T06:54:37.018Z,11.95
2022-09-24T06:59:39.451Z,12.12
2022-09-24T07:04:41.840Z,12.56
2022-09-24T07:09:44.250Z,12.82
2022-09-24T07:14:46.612Z,13.19
2022-09-24T07:19:48.896Z,13.55
2022-09-24T07:24:51.248Z,13.95
2022-09-24T07:29:53.674Z,13.97
2022-09-24T07:34:55.988Z,14.54
2022-09-24T07:39:58.420Z,14.95
2022-09-24T07:45:01.041Z,14.71
2022-09-24T07:50:04.366Z,14.89
2022-09-24T07:55:07.410Z,15.03
2022-09-24T08:00:13.127Z,15.14
2022-09-24T08:05:18.213Z,15.51
2022-09-24T08:10:20.795Z,15.65
2022-09-24T08:15:23.349Z,15.72
2022-09-24T08:20:25.687Z,15.82
2022-09-24T08:25:28.158Z,15.84
2022-09-24T08:30:31.177Z,16.19
2022-09-24T08:35:34.815Z,16.09
2022-09-24T08:40:40.419Z,16.36
2022-09-24T08:46:05.895Z,16.32
2022-09-24T08:51:13.209Z,16.28
2022-09-24T08:56:21.400Z,16.18
2022-09-24T09:01:45.316Z,16.43
2022-09-24T09:07:06.424Z,16.46
2022-09-24T09:12:14.747Z,16.48
2022-09-24T09:17:42.329Z,17.02
2022-09-24T09:22:53.456Z,17.17
2022-09-24T09:28:07.727Z,17.27
2022-09-24T09:33:34.958Z,17.14
2022-09-24T09:39:16.278Z,17.20
2022-09-24T09:44:26.336Z,17.08
2022-09-24T09:49:32.914Z,17.42
2022-09-24T09:54:39.150Z,17.63
2022-09-24T09:59:41.523Z,17.65
2022-09-24T10:04:44.055Z,18.03
2022-09-24T10:09:47.064Z,17.90
2022-09-24T10:15:22.282Z,17.87
2022-09-24T10:20:30.350Z,18.15
2022-09-24T10:25:33.189Z,18.46
2022-09-24T10:30:35.631Z,18.78
2022-09-24T10:35:38.858Z,18.88
2022-09-24T10:40:41.858Z,18.56
2022-09-24T10:46:21.865Z,18.98
2022-09-24T10:51:28.949Z,18.98
2022-09-24T10:56:45.207Z,18.99
2022-09-24T11:02:17.733Z,19.16
2022-09-24T11:07:34.891Z,18.71
2022-09-24T11:13:07.451Z,18.26
2022-09-24T11:18:27.923Z,18.25
2022-09-24T11:23:50.536Z,18.45
2022-09-24T11:29:23.968Z,18.23
2022-09-24T11:34:40.641Z,18.33
2022-09-24T11:40:00.821Z,18.15
2022-09-24T11:45:30.339Z,18.18
2022-09-24T11:50:47.857Z,18.30
2022-09-24T11:55:53.741Z,18.25
2022-09-24T12:01:18.070Z,18.21
2022-09-24T12:06:23.335Z,18.01
2022-09-24T12:11:57.214Z,18.14
2022-09-24T12:17:04.471Z,18.00
2022-09-24T12:22:06.985Z,17.97
2022-09-24T12:27:15.108Z,17.84
2022-09-24T12:32:54.620Z,17.89
2022-09-24T12:38:04.381Z,17.96
2022-09-24T12:43:25.316Z,18.22
2022-09-24T12:48:28.135Z,18.18
2022-09-24T12:53:35.901Z,18.41
2022-09-24T12:58:38.197Z,18.55
2022-09-24T13:03:46.854Z,18.68
2022-09-24T13:08:50.767Z,18.67
2022-09-24T13:14:02.769Z,18.85
2022-09-24T13:19:06.216Z,18.80
2022-09-24T13:24:12.606Z,18.85
2022-09-24T13:29:26.356Z,18.79
2022-09-24T13:34:30.479Z,18.69
2022-09-24T13:39:46.533Z,18.74
2022-09-24T13:44:58.125Z,18.93
2022-09-24T13:50:16.848Z,18.78
2022-09-24T13:55:23.661Z,18.97
2022-09-24T14:00:27.901Z,19.11
2022-09-24T14:05:35.693Z,18.87
2022-09-24T14:10:38.208Z,18.82
2022-09-24T14:15:54.446Z,18.55
2022-09-24T14:21:06.285Z,18.45
2022-09-24T14:26:27.668Z,18.16
2022-09-24T14:31:30.182Z,17.91
2022-09-24T14:36:35.953Z,17.86
2022-09-24T14:41:38.391Z,17.99
2022-09-24T14:46:49.734Z,18.30
2022-09-24T14:52:03.605Z,18.35
2022-09-24T14:57:33.127Z,18.47
2022-09-24T15:02:37.303Z,18.48
2022-09-24T15:07:40.023Z,18.43
2022-09-24T15:12:43.419Z,18.18
2022-09-24T15:17:47.417Z,18.30
2022-09-24T15:22:50.128Z,18.08
2022-09-24T15:27:54.712Z,17.99
2022-09-24T15:32:57.050Z,17.87
2022-09-24T15:37:59.417Z,17.65
2022-09-24T15:43:02.475Z,17.35
2022-09-24T15:48:07.297Z,17.15
2022-09-24T15:53:18.819Z,16.81
2022-09-24T15:58:22.099Z,16.50
2022-09-24T16:03:27.489Z,16.21
2022-09-24T16:08:29.978Z,15.94
2022-09-24T16:13:33.315Z,15.74
2022-09-24T16:18:35.854Z,15.51
2022-09-24T16:23:38.214Z,15.37
2022-09-24T16:28:40.661Z,15.14
2022-09-24T16:33:43.048Z,15.05
2022-09-24T16:38:45.619Z,14.87
2022-09-24T16:43:47.979Z,14.74
2022-09-24T16:48:50.656Z,14.70
2022-09-24T16:53:56.652Z,14.66
2022-09-24T16:58:59.157Z,14.59
2022-09-24T17:04:02.821Z,14.42
2022-09-24T17:09:23.858Z,14.13
2022-09-24T17:14:26.384Z,14.02
2022-09-24T17:19:28.676Z,13.95
2022-09-24T17:24:31.949Z,13.84
2022-09-24T17:29:34.479Z,13.81
2022-09-24T17:34:36.830Z,13.68
2022-09-24T17:39:39.235Z,13.70
2022-09-24T17:44:42.079Z,13.64
2022-09-24T17:49:44.457Z,13.51
2022-09-24T17:54:48.057Z,13.43
2022-09-24T17:59:50.378Z,13.36
2022-09-24T18:04:52.714Z,13.23
2022-09-24T18:09:56.206Z,13.12
2022-09-24T18:14:58.805Z,13.02
2022-09-24T18:20:01.496Z,13.01
2022-09-24T18:25:05.970Z,12.99
2022-09-24T18:30:11.818Z,12.96
2022-09-24T18:35:14.318Z,12.87
2022-09-24T18:40:16.871Z,12.76
2022-09-24T18:45:19.457Z,12.69
2022-09-24T18:50:21.851Z,12.65
2022-09-24T18:55:25.443Z,12.59
2022-09-24T19:00:46.553Z,12.70
2022-09-24T19:05:53.345Z,12.73
2022-09-24T19:10:56.196Z,12.81
2022-09-24T19:15:58.619Z,12.70
2022-09-24T19:21:01.123Z,12.61
2022-09-24T19:26:03.719Z,12.66
2022-09-24T19:31:07.249Z,12.72
2022-09-24T19:36:10.470Z,12.82
2022-09-24T19:41:18.493Z,12.81
2022-09-24T19:46:26.124Z,12.89
2022-09-24T19:51:30.524Z,12.99
2022-09-24T19:56:33.047Z,12.95
2022-09-24T20:01:35.556Z,12.80
2022-09-24T20:06:38.706Z,12.87
2022-09-24T20:11:41.150Z,12.87
2022-09-24T20:16:44.710Z,12.99
2022-09-24T20:21:47.457Z,13.04
2022-09-24T20:27:08.616Z,13.01
2022-09-24T20:32:18.307Z,13.09
2022-09-24T20:37:21.166Z,13.07
2022-09-24T20:42:23.546Z,12.96
2022-09-24T20:47:27.905Z,12.81
2022-09-24T20:52:30.285Z,12.79
2022-09-24T20:57:32.821Z,12.64
2022-09-24T21:02:40.590Z,12.53
2022-09-24T21:07:43.818Z,12.54
2022-09-24T21:12:50.767Z,12.55
2022-09-24T21:18:18.441Z,12.37
2022-09-24T21:23:15.763Z,12.58
2022-09-24T21:28:18.157Z,12.65
2022-09-24T21:33:20.484Z,12.62
2022-09-24T21:38:23.059Z,12.73
2022-09-24T21:43:29.736Z,12.88
2022-09-24T21:48:35.240Z,12.85
2022-09-24T21:53:38.130Z,12.88
2022-09-24T21:58:40.754Z,12.81
2022-09-24T22:03:45.349Z,12.83
2022-09-24T22:08:47.861Z,12.81
2022-09-24T22:13:50.186Z,12.76
2022-09-24T22:18:53.115Z,12.80
2022-09-24T22:23:56.292Z,12.80
2022-09-24T22:28:58.723Z,12.76
2022-09-24T22:34:20.042Z,12.73
2022-09-24T22:39:22.578Z,12.71
2022-09-24T22:44:24.991Z,12.70
2022-09-24T22:49:27.427Z,12.64
2022-09-24T22:54:30.643Z,12.59
2022-09-24T22:59:33.011Z,12.58
2022-09-24T23:04:36.533Z,12.57
2022-09-24T23:09:38.940Z,12.62
2022-09-24T23:14:41.606Z,12.54
2022-09-24T23:19:49.990Z,12.53
2022-09-24T23:24:52.420Z,12.54
2022-09-24T23:29:54.853Z,12.67
2022-09-24T23:34:57.188Z,12.64
2022-09-24T23:39:59.848Z,12.62
2022-09-24T23:45:02.267Z,12.62
2022-09-24T23:50:05.086Z,12.47
2022-09-24T23:55:07.712Z,12.51
